Aérodrome :
LOGIN :

S'inscrire | Disclaimer

   EN    FR    IT 

 










Légende :    VFR   VFR Marginal   IFR   IFR Intensif   IFR Très Intensif
Visi : 
Plafond : 
>= 8 km
>= 3000ft
5 à 8 km
1000 à 3000 ft
1500m à 5 km
500 à 1000 ft
800 à 1500m
200 à 500 ft
< 800m
< 200 ft
Symboles :   Orages  Brouillard  Fortes neiges  Fortes précipitations  Vent > 20 kt
SIGMETs :   Divers  Orages  Givrage  Turbulence  Onde Orograph.  Cendres Volcan.







- Altitude de l'aérodrome : 137 ft
- Code IATA : ARN


ESSA - Stockholm-Arlanda

DERNIER METAR :
  • 250120Z 24005KT 9999 SCT007 07/07 Q1001 TEMPO BKN008

METARs EXPIRÉS :
  • 250050Z 25005KT 0600 R01L/P1500N R19R/P1500N R01R/P1500N R19L/P1500N SCT018 07/07 Q1001 TEMPO BKN008
  • 250020Z 24005KT 9999 FEW008 08/08 Q1001 TEMPO BKN008
  • 242350Z 22007KT 9999 SCT009 BKN061 09/08 Q1001 TEMPO BKN008
  • 242320Z 22005KT 9999 FEW008 BKN062 09/09 Q1001 TEMPO BKN008
  • 242250Z 22005KT 9999 SCT008 BKN062 09/09 Q1002 NOSIG

TAF AMD TAF ESSA
Valide du 25 à 01h jusqu'au 26 à 00h UTC


250108Z 2501/2524 24005KT 9999 SCT008 BKN015
TEMPO 2501/2503 0500 BCFG BKN004
TEMPO 2503/2507 3000 RA BKN006 BKN025CB
BECMG 2506/2508 32010KT
PROB40 2506/2509 BKN007
PROB40 2522/2524 4000 RA BKN020CB
Pas de NOTAMs connus pour ce terrain.



MET'MAP, la Météo Aéronautique d'un coup d'oeil ! - Copyright ORBIFLY Décembre 2007 - Disclaimer

ORBIFLY MET'MAP TEAM :

Programmation & Développement : Alexandra Zaïnal
Conception & Développement : Baudouin d'Aumeries
Co-Programmation & Développement : Marc-Olivier Méhu
Soutien technique & logistique : Manuel Goepfert

Contact : metmap@orbifly.com




SOURCES & CREDITS :

   NOAA